Time,TemperatureF,DewpointF,PressureIn,WindDirection,WindDirectionDegrees,WindSpeedMPH,WindSpeedGustMPH,Humidity,HourlyPrecipIn,Conditions,Clouds,dailyrainin,SolarRadiationWatts/m^2,SoftwareType,DateUTC
2013-07-20 00:02:00,77.0,69.0,29.98,SSE,165,0.0,3.0,76,0.00,,,0.00,0.000000,,2013-07-20 05:02:00,
2013-07-20 00:12:00,77.0,69.0,29.98,SSE,165,0.0,1.0,76,0.00,,,0.00,0.000000,,2013-07-20 05:12:00,
2013-07-20 00:32:00,76.0,68.0,29.98,SE,136,0.0,2.0,77,0.00,,,0.00,0.000000,,2013-07-20 05:32:00,
2013-07-20 01:01:00,76.0,69.0,29.98,SE,138,0.0,0.0,79,0.00,,,0.00,0.000000,,2013-07-20 06:01:00,
2013-07-20 01:11:00,76.0,69.0,29.98,SE,138,0.0,0.0,80,0.00,,,0.00,0.000000,,2013-07-20 06:11:00,
2013-07-20 01:32:00,75.0,69.0,29.98,SE,141,0.0,3.0,81,0.00,,,0.00,0.000000,,2013-07-20 06:32:00,
2013-07-20 01:43:00,75.0,69.0,29.95,ESE,109,0.0,2.0,82,0.00,,,0.00,0.000000,,2013-07-20 06:43:00,
2013-07-20 02:01:00,75.0,69.0,29.98,SE,139,0.0,3.0,81,0.00,,,0.00,0.000000,,2013-07-20 07:01:00,
2013-07-20 02:12:00,75.0,69.0,29.97,SE,139,0.0,1.0,81,0.00,,,0.00,0.000000,,2013-07-20 07:12:00,
2013-07-20 02:33:00,75.0,69.0,29.83,SE,127,0.0,3.0,83,0.00,,,0.00,0.000000,,2013-07-20 07:33:00,
2013-07-20 02:44:00,75.0,69.0,29.98,SE,127,0.0,0.0,83,0.00,,,0.00,0.000000,,2013-07-20 07:44:00,
2013-07-20 03:01:00,74.0,69.0,29.98,SSE,159,0.0,3.0,84,0.00,,,0.00,0.000000,,2013-07-20 08:01:00,
2013-07-20 03:11:00,74.0,69.0,29.97,SSE,159,0.0,3.0,85,0.00,,,0.00,0.000000,,2013-07-20 08:11:00,
2013-07-20 03:32:00,74.0,69.0,29.93,SSE,159,0.0,1.0,85,0.00,,,0.00,0.000000,,2013-07-20 08:32:00,
2013-07-20 03:44:00,74.0,69.0,29.91,SSE,159,0.0,1.0,85,0.00,,,0.00,0.000000,,2013-07-20 08:44:00,
2013-07-20 04:02:00,74.0,69.0,29.60,SSE,159,0.0,1.0,85,0.00,,,0.00,0.000000,,2013-07-20 09:02:00,
2013-07-20 04:11:00,74.0,69.0,29.97,SSE,159,0.0,0.0,85,0.00,,,0.00,0.000000,,2013-07-20 09:11:00,
2013-07-20 04:33:00,74.0,70.0,29.43,SSE,159,0.0,1.0,86,0.00,,,0.00,0.000000,,2013-07-20 09:33:00,
2013-07-20 04:43:00,74.0,70.0,29.96,SSE,159,0.0,0.0,86,0.00,,,0.00,0.000000,,2013-07-20 09:43:00,
2013-07-20 04:53:00,74.0,70.0,29.96,SSE,159,0.0,0.0,86,0.00,,,0.00,0.000000,,2013-07-20 09:53:00,
2013-07-20 05:01:00,74.0,70.0,29.96,SSE,159,0.0,0.0,86,0.00,,,0.00,0.000000,,2013-07-20 10:01:00,
2013-07-20 05:11:00,74.0,70.0,29.96,SSE,159,0.0,0.0,86,0.00,,,0.00,0.000000,,2013-07-20 10:11:00,
2013-07-20 05:32:00,74.0,70.0,29.97,SSE,159,0.0,1.0,87,0.00,,,0.00,0.000000,,2013-07-20 10:32:00,
2013-07-20 05:42:00,74.0,70.0,29.97,SSE,159,0.0,1.0,87,0.00,,,0.00,0.000000,,2013-07-20 10:42:00,
2013-07-20 05:52:00,74.0,70.0,29.97,SSE,159,0.0,0.0,87,0.00,,,0.00,0.000000,,2013-07-20 10:52:00,
2013-07-20 06:01:00,74.0,70.0,29.97,SSE,159,0.0,0.0,87,0.00,,,0.00,0.000000,,2013-07-20 11:01:00,
2013-07-20 06:11:00,74.0,70.0,29.97,SSE,159,0.0,0.0,87,0.00,,,0.00,0.000000,,2013-07-20 11:11:00,
2013-07-20 06:32:00,74.0,70.0,29.97,SSE,159,0.0,0.0,88,0.00,,,0.00,0.000000,,2013-07-20 11:32:00,
2013-07-20 06:43:00,73.0,69.0,29.97,SSE,159,0.0,0.0,88,0.00,,,0.00,0.000000,,2013-07-20 11:43:00,
2013-07-20 07:01:00,73.0,70.0,29.97,SSE,159,0.0,0.0,89,0.00,,,0.00,1.000000,,2013-07-20 12:01:00,
2013-07-20 07:11:00,73.0,70.0,29.97,SSE,159,0.0,1.0,89,0.00,,,0.00,2.000000,,2013-07-20 12:11:00,
2013-07-20 07:32:00,73.0,70.0,29.97,SSE,159,0.0,1.0,89,0.00,,,0.00,4.000000,,2013-07-20 12:32:00,
2013-07-20 08:01:00,74.0,71.0,29.97,SSE,159,0.0,1.0,89,0.00,,,0.00,5.000000,,2013-07-20 13:01:00,
2013-07-20 08:11:00,74.0,71.0,29.97,SSE,159,0.0,1.0,89,0.00,,,0.00,6.000000,,2013-07-20 13:11:00,
2013-07-20 08:32:00,74.0,71.0,29.97,SSE,158,0.0,1.0,89,0.00,,,0.00,6.000000,,2013-07-20 13:32:00,
2013-07-20 08:43:00,74.0,71.0,29.97,SSE,160,0.0,0.0,90,0.00,,,0.00,6.000000,,2013-07-20 13:43:00,
2013-07-20 08:53:00,74.0,71.0,29.97,SSE,160,0.0,0.0,90,0.00,,,0.00,6.000000,,2013-07-20 13:53:00,
2013-07-20 09:02:00,74.0,71.0,29.97,SSE,164,0.0,1.0,90,0.00,,,0.00,5.000000,,2013-07-20 14:02:00,
2013-07-20 09:11:00,75.0,72.0,29.79,South,179,0.0,3.0,90,0.00,,,0.00,5.000000,,2013-07-20 14:11:00,
2013-07-20 09:32:00,76.0,73.0,29.96,West,268,1.0,5.0,89,0.00,,,0.00,5.000000,,2013-07-20 14:32:00,
2013-07-20 09:43:00,76.0,72.0,29.96,West,271,2.0,7.0,87,0.00,,,0.00,7.000000,,2013-07-20 14:43:00,
2013-07-20 09:53:00,77.0,72.0,29.96,West,272,0.0,5.0,86,0.00,,,0.00,7.000000,,2013-07-20 14:53:00,
2013-07-20 10:01:00,78.0,73.0,29.96,West,275,1.0,6.0,84,0.00,,,0.00,7.000000,,2013-07-20 15:01:00,
2013-07-20 10:11:00,79.0,73.0,29.94,West,273,1.0,7.0,83,0.00,,,0.00,8.000000,,2013-07-20 15:11:00,
2013-07-20 10:22:00,79.0,73.0,29.95,West,268,2.0,7.0,81,0.00,,,0.00,9.000000,,2013-07-20 15:22:00,
2013-07-20 10:33:00,80.0,73.0,29.95,West,269,2.0,7.0,79,0.00,,,0.00,9.000000,,2013-07-20 15:33:00,
2013-07-20 10:44:00,80.0,73.0,29.95,West,269,2.0,7.0,79,0.00,,,0.00,9.000000,,2013-07-20 15:44:00,
2013-07-20 11:01:00,82.0,74.0,29.75,WNW,282,2.0,7.0,76,0.00,,,0.00,17.000000,,2013-07-20 16:01:00,
2013-07-20 11:11:00,83.0,75.0,29.78,WNW,282,1.0,5.0,77,0.00,,,0.00,75.000000,,2013-07-20 16:11:00,
2013-07-20 11:43:00,86.0,75.0,29.93,West,277,1.0,5.0,71,0.00,,,0.00,81.000000,,2013-07-20 16:43:00,
2013-07-20 11:52:00,87.0,75.0,29.90,West,275,0.0,3.0,68,0.00,,,0.00,73.000000,,2013-07-20 16:52:00,
2013-07-20 12:02:00,88.0,74.0,29.64,West,274,1.0,6.0,64,0.00,,,0.00,86.000000,,2013-07-20 17:02:00,
2013-07-20 12:11:00,88.0,74.0,29.68,West,269,2.0,7.0,64,0.00,,,0.00,88.000000,,2013-07-20 17:11:00,
2013-07-20 12:32:00,90.0,74.0,29.52,WNW,296,0.0,3.0,60,0.00,,,0.00,94.000000,,2013-07-20 17:32:00,
2013-07-20 12:43:00,91.0,75.0,29.68,WNW,299,0.0,3.0,59,0.00,,,0.00,97.000000,,2013-07-20 17:43:00,
2013-07-20 13:01:00,91.0,74.0,29.91,West,279,1.0,7.0,58,0.00,,,0.00,27.000000,,2013-07-20 18:01:00,
2013-07-20 13:11:00,90.0,74.0,29.92,WNW,284,1.0,3.0,59,0.00,,,0.00,112.000000,,2013-07-20 18:11:00,
2013-07-20 13:23:00,91.0,75.0,29.78,SE,142,0.0,3.0,59,0.00,,,0.00,107.000000,,2013-07-20 18:23:00,
2013-07-20 13:35:00,92.0,75.0,29.85,SSE,156,0.0,3.0,57,0.00,,,0.00,104.000000,,2013-07-20 18:35:00,
2013-07-20 13:43:00,92.0,75.0,29.85,SSE,156,0.0,3.0,57,0.00,,,0.00,104.000000,,2013-07-20 18:43:00,
2013-07-20 14:04:00,94.0,74.0,29.48,SSW,202,0.0,3.0,52,0.00,,,0.00,103.000000,,2013-07-20 19:04:00,
2013-07-20 14:14:00,94.0,74.0,29.78,SSE,168,1.0,3.0,53,0.00,,,0.00,109.000000,,2013-07-20 19:14:00,
2013-07-20 14:33:00,94.0,74.0,29.69,WSW,255,1.0,3.0,52,0.00,,,0.00,99.000000,,2013-07-20 19:33:00,
2013-07-20 14:43:00,94.0,74.0,29.69,WSW,255,1.0,3.0,52,0.00,,,0.00,99.000000,,2013-07-20 19:43:00,
2013-07-20 15:04:00,94.0,72.0,29.88,ESE,119,0.0,3.0,50,0.00,,,0.00,22.000000,,2013-07-20 20:04:00,
2013-07-20 15:14:00,92.0,71.0,29.88,SSE,149,1.0,6.0,51,0.00,,,0.00,97.000000,,2013-07-20 20:14:00,
2013-07-20 15:33:00,92.0,72.0,29.86,NE,40,1.0,3.0,52,0.00,,,0.00,26.000000,,2013-07-20 20:33:00,
2013-07-20 15:45:00,92.0,72.0,29.86,NE,40,1.0,3.0,52,0.00,,,0.00,26.000000,,2013-07-20 20:45:00,
2013-07-20 16:02:00,92.0,72.0,29.87,SE,142,1.0,2.0,53,0.00,,,0.00,13.000000,,2013-07-20 21:02:00,
2013-07-20 16:12:00,91.0,73.0,29.87,SE,142,0.0,2.0,55,0.00,,,0.00,13.000000,,2013-07-20 21:12:00,
2013-07-20 16:33:00,90.0,72.0,29.86,SE,140,0.0,3.0,56,0.00,,,0.00,18.000000,,2013-07-20 21:33:00,
2013-07-20 16:44:00,90.0,72.0,29.86,SE,140,0.0,3.0,56,0.00,,,0.00,18.000000,,2013-07-20 21:44:00,
2013-07-20 16:50:00,88.0,72.0,29.55,SE,134,1.0,10.0,59,0.01,,,0.01,8.000000,,2013-07-20 21:50:00,
2013-07-20 17:05:00,88.0,72.0,29.55,SE,134,1.0,10.0,59,0.01,,,0.01,8.000000,,2013-07-20 22:05:00,
2013-07-20 17:14:00,88.0,72.0,29.55,SE,134,1.0,10.0,59,0.01,,,0.01,8.000000,,2013-07-20 22:14:00,
2013-07-20 17:24:00,88.0,72.0,29.55,SE,134,1.0,10.0,59,0.01,,,0.01,8.000000,,2013-07-20 22:24:00,
2013-07-20 17:33:00,88.0,72.0,29.55,SE,134,1.0,10.0,59,0.01,,,0.01,8.000000,,2013-07-20 22:33:00,
2013-07-20 17:45:00,88.0,72.0,29.55,SE,134,1.0,10.0,59,0.01,,,0.01,8.000000,,2013-07-20 22:45:00,